Time;durP1;ratioP1;P1;durP2;ratioP2;P2;SDS_P1;SDS_P2;PMS_P1;PMS_P2;Temp;Humidity;BMP_temperature;BMP_pressure;BME280_temperature;BME280_humidity;BME280_pressure;Samples;Min_cycle;Max_cycle;Signal;HPM_P1;HPM_P2
2022/08/21 00:00:44;;;;;;;;;;;24.10;87.10;;;;;;5095381;28;20412;-54
2022/08/21 00:03:10;;;;;;;;;;;24.10;87.10;;;;;;5095715;28;19927;-55
2022/08/21 00:05:37;;;;;;;;;;;24.10;87.00;;;;;;5095340;28;19912;-50
2022/08/21 00:08:03;;;;;;;;;;;24.10;87.00;;;;;;5077227;28;19978;-54
2022/08/21 00:10:29;;;;;;;;;;;24.10;87.00;;;;;;5095268;28;20383;-53
2022/08/21 00:12:54;;;;;;;;;;;24.10;87.00;;;;;;5095247;28;19908;-49
2022/08/21 00:15:22;;;;;;;;;;;24.10;87.00;;;;;;5095452;28;19908;-50
2022/08/21 00:17:48;;;;;;;;;;;24.10;87.00;;;;;;5095398;28;20270;-53
2022/08/21 00:20:15;;;;;;;;;;;24.10;87.00;;;;;;5095317;28;19912;-51
2022/08/21 00:22:41;;;;;;;;;;;24.10;87.20;;;;;;5095362;28;19908;-52
2022/08/21 00:25:07;;;;;;;;;;;24.10;87.60;;;;;;5095070;28;19908;-51
2022/08/21 00:27:33;;;;;;;;;;;24.10;87.10;;;;;;5095254;28;19908;-54
2022/08/21 00:29:58;;;;;;;;;;;24.10;87.10;;;;;;5095151;28;19908;-52
2022/08/21 00:32:24;;;;;;;;;;;24.10;87.10;;;;;;5095304;28;19908;-51
2022/08/21 00:34:50;;;;;;;;;;;24.10;87.10;;;;;;5076978;28;19930;-49
2022/08/21 00:37:15;;;;;;;;;;;24.10;87.10;;;;;;5076613;28;19912;-54
2022/08/21 00:39:41;;;;;;;;;;;24.10;87.10;;;;;;5076887;28;19961;-51
2022/08/21 00:42:07;;;;;;;;;;;24.10;87.10;;;;;;5094934;28;20007;-49
2022/08/21 00:44:32;;;;;;;;;;;24.10;87.10;;;;;;5095142;28;19908;-54
2022/08/21 00:46:58;;;;;;;;;;;24.10;87.10;;;;;;5094466;28;19914;-53
2022/08/21 00:49:23;;;;;;;;;;;24.10;87.10;;;;;;5094546;28;20010;-53
2022/08/21 00:51:50;;;;;;;;;;;24.10;87.10;;;;;;5094829;28;19908;-53
2022/08/21 00:54:18;;;;;;;;;;;24.10;87.20;;;;;;5094818;28;20333;-50
2022/08/21 00:56:44;;;;;;;;;;;24.10;87.10;;;;;;5094443;28;19908;-52
2022/08/21 00:59:09;;;;;;;;;;;24.10;87.10;;;;;;5094340;28;20010;-55
2022/08/21 01:01:35;;;;;;;;;;;24.10;87.20;;;;;;5094701;28;20293;-54
2022/08/21 01:04:01;;;;;;;;;;;24.10;87.10;;;;;;5094347;28;19977;-51
2022/08/21 01:06:27;;;;;;;;;;;24.10;87.10;;;;;;5094596;28;19908;-51
2022/08/21 01:08:53;;;;;;;;;;;24.10;87.10;;;;;;5094598;28;19908;-51
2022/08/21 01:11:18;;;;;;;;;;;24.10;87.10;;;;;;5094342;28;19995;-53
2022/08/21 01:13:46;;;;;;;;;;;24.10;87.10;;;;;;5094123;28;19947;-52
2022/08/21 01:16:13;;;;;;;;;;;24.10;87.10;;;;;;5094512;28;19908;-53
2022/08/21 01:18:38;;;;;;;;;;;24.10;87.10;;;;;;5076184;28;20282;-52
2022/08/21 01:21:04;;;;;;;;;;;24.00;87.10;;;;;;5094413;28;19912;-53
2022/08/21 01:23:29;;;;;;;;;;;24.10;87.20;;;;;;5076249;28;20274;-54
2022/08/21 01:25:55;;;;;;;;;;;24.00;87.10;;;;;;5094061;28;19908;-51
2022/08/21 01:28:21;;;;;;;;;;;24.00;87.10;;;;;;5094760;28;19908;-50
2022/08/21 01:30:48;;;;;;;;;;;24.00;87.10;;;;;;5093979;28;19908;-52
2022/08/21 01:33:13;;;;;;;;;;;24.00;87.10;;;;;;5094037;28;20305;-53
2022/08/21 01:35:39;;;;;;;;;;;24.10;87.10;;;;;;5094517;28;19916;-51
2022/08/21 01:38:04;;;;;;;;;;;24.00;87.10;;;;;;5093870;28;19912;-54
2022/08/21 01:40:30;;;;;;;;;;;24.00;87.10;;;;;;5093780;28;20392;-51
2022/08/21 01:42:55;;;;;;;;;;;24.00;87.10;;;;;;5094053;28;19919;-52
2022/08/21 01:45:21;;;;;;;;;;;24.00;87.20;;;;;;5094174;28;19917;-54
2022/08/21 01:47:46;;;;;;;;;;;24.00;87.20;;;;;;5075729;28;19908;-54
2022/08/21 01:50:13;;;;;;;;;;;24.00;87.20;;;;;;5075955;28;19997;-54
2022/08/21 01:52:39;;;;;;;;;;;24.00;87.10;;;;;;5093959;28;19912;-53
2022/08/21 01:55:06;;;;;;;;;;;24.00;87.10;;;;;;5093790;28;20003;-53
2022/08/21 01:57:32;;;;;;;;;;;24.00;87.10;;;;;;5095522;28;19912;-49
2022/08/21 01:59:58;;;;;;;;;;;24.00;87.20;;;;;;5097716;28;19988;-52
2022/08/21 02:02:23;;;;;;;;;;;24.00;87.20;;;;;;5097811;28;19961;-51
2022/08/21 02:04:49;;;;;;;;;;;24.00;87.20;;;;;;5097890;28;19944;-52
2022/08/21 02:07:14;;;;;;;;;;;24.00;87.20;;;;;;5079814;28;19908;-50
2022/08/21 02:09:42;;;;;;;;;;;24.00;87.20;;;;;;5097986;28;20411;-53
2022/08/21 02:12:08;;;;;;;;;;;24.00;87.30;;;;;;5097634;28;19915;-55
2022/08/21 02:14:34;;;;;;;;;;;24.00;87.30;;;;;;5098241;28;19908;-52
2022/08/21 02:17:00;;;;;;;;;;;24.00;87.30;;;;;;5097890;28;19916;-51
2022/08/21 02:19:26;;;;;;;;;;;24.00;87.30;;;;;;5097680;28;20278;-54
2022/08/21 02:21:51;;;;;;;;;;;24.00;87.30;;;;;;5097574;28;19994;-52
2022/08/21 02:24:17;;;;;;;;;;;24.00;87.30;;;;;;5097394;28;20377;-53
2022/08/21 02:26:42;;;;;;;;;;;24.00;87.80;;;;;;5097956;28;19908;-53
2022/08/21 02:29:08;;;;;;;;;;;24.00;87.30;;;;;;5097595;28;20006;-54
2022/08/21 02:31:33;;;;;;;;;;;23.90;87.30;;;;;;5097296;28;20367;-53
2022/08/21 02:33:59;;;;;;;;;;;24.00;87.30;;;;;;5097237;28;19908;-52
2022/08/21 02:36:26;;;;;;;;;;;24.00;87.30;;;;;;5097118;28;19912;-50
2022/08/21 02:38:52;;;;;;;;;;;24.00;87.20;;;;;;5097480;28;19920;-55
2022/08/21 02:41:19;;;;;;;;;;;24.00;87.20;;;;;;5097309;28;20410;-53
2022/08/21 02:43:44;;;;;;;;;;;24.00;87.20;;;;;;5096919;28;19963;-52
2022/08/21 02:46:11;;;;;;;;;;;24.00;87.20;;;;;;5096933;28;19912;-52
2022/08/21 02:48:37;;;;;;;;;;;24.00;87.20;;;;;;5097243;28;20362;-52
2022/08/21 02:51:05;;;;;;;;;;;24.00;87.20;;;;;;5096929;28;20017;-52
2022/08/21 02:53:31;;;;;;;;;;;24.00;87.20;;;;;;5096881;28;19908;-52
2022/08/21 02:55:57;;;;;;;;;;;23.90;87.20;;;;;;5096772;28;20388;-52
2022/08/21 02:58:27;;;;;;;;;;;23.90;87.20;;;;;;5096803;28;20305;-53
2022/08/21 03:00:53;;;;;;;;;;;24.00;87.10;;;;;;5097062;28;19916;-52
2022/08/21 03:03:20;;;;;;;;;;;24.00;87.10;;;;;;5096737;28;19920;-54
2022/08/21 03:05:46;;;;;;;;;;;24.00;87.10;;;;;;5096529;28;20011;-52
2022/08/21 03:08:13;;;;;;;;;;;24.00;87.10;;;;;;5096682;28;20366;-55
2022/08/21 03:10:40;;;;;;;;;;;24.00;87.10;;;;;;5096860;28;19998;-55
2022/08/21 03:13:06;;;;;;;;;;;24.00;87.10;;;;;;5097043;28;19958;-51
2022/08/21 03:15:31;;;;;;;;;;;24.00;87.10;;;;;;5096461;28;19908;-51
2022/08/21 03:17:59;;;;;;;;;;;24.00;87.10;;;;;;5095816;28;20288;-52
2022/08/21 03:20:26;;;;;;;;;;;24.00;87.10;;;;;;5096727;28;19951;-52
2022/08/21 03:22:52;;;;;;;;;;;23.90;87.10;;;;;;5096495;28;19959;-49
2022/08/21 03:25:18;;;;;;;;;;;23.80;87.10;;;;;;5096282;28;19909;-51
2022/08/21 03:27:43;;;;;;;;;;;23.90;87.20;;;;;;5096448;28;20393;-52
2022/08/21 03:30:10;;;;;;;;;;;23.90;87.00;;;;;;5096440;28;19911;-50
2022/08/21 03:32:36;;;;;;;;;;;23.90;87.20;;;;;;5096013;28;19953;-49
2022/08/21 03:35:01;;;;;;;;;;;23.90;87.20;;;;;;5095999;28;19999;-52
2022/08/21 03:37:27;;;;;;;;;;;23.90;87.20;;;;;;5096266;28;19916;-54
2022/08/21 03:39:52;;;;;;;;;;;23.90;87.20;;;;;;5095856;28;20397;-52
2022/08/21 03:42:18;;;;;;;;;;;23.90;87.30;;;;;;5095925;28;20053;-54
2022/08/21 03:44:43;;;;;;;;;;;23.90;87.20;;;;;;5095888;28;20358;-53
2022/08/21 03:47:09;;;;;;;;;;;23.90;87.20;;;;;;5096386;28;19923;-54
2022/08/21 03:49:35;;;;;;;;;;;23.90;87.20;;;;;;5095796;28;19907;-52
2022/08/21 03:52:01;;;;;;;;;;;23.90;87.20;;;;;;5095954;28;19934;-51
2022/08/21 03:54:26;;;;;;;;;;;23.90;87.30;;;;;;5095826;28;19908;-51
2022/08/21 03:56:52;;;;;;;;;;;23.90;87.30;;;;;;5095606;28;19912;-51
2022/08/21 03:59:17;;;;;;;;;;;23.90;87.30;;;;;;5095828;28;19916;-50
2022/08/21 04:01:54;;;;;;;;;;;23.90;87.20;;;;;;5095518;28;19988;-52
2022/08/21 04:04:19;;;;;;;;;;;23.90;87.30;;;;;;5095945;28;19920;-48
2022/08/21 04:06:45;;;;;;;;;;;23.90;87.30;;;;;;5090025;28;19934;-51
2022/08/21 04:09:11;;;;;;;;;;;23.80;87.30;;;;;;5108533;28;19908;-49
2022/08/21 04:11:37;;;;;;;;;;;23.80;87.30;;;;;;5095205;28;20260;-54
2022/08/21 04:14:02;;;;;;;;;;;23.80;87.30;;;;;;5095375;28;19908;-52
2022/08/21 04:16:28;;;;;;;;;;;23.80;87.40;;;;;;5095189;28;20360;-54
2022/08/21 04:18:53;;;;;;;;;;;23.90;87.30;;;;;;5077207;28;20309;-53
2022/08/21 04:21:19;;;;;;;;;;;23.90;87.30;;;;;;5076724;28;19912;-52
2022/08/21 04:23:44;;;;;;;;;;;23.90;87.20;;;;;;5095429;28;20061;-53
2022/08/21 04:26:10;;;;;;;;;;;23.90;87.30;;;;;;5102256;28;19912;-55
2022/08/21 04:28:35;;;;;;;;;;;23.90;86.80;;;;;;5104150;28;19961;-53
2022/08/21 04:31:01;;;;;;;;;;;23.90;87.00;;;;;;5074640;28;19977;-52
2022/08/21 04:33:27;;;;;;;;;;;23.80;87.10;;;;;;5115600;28;19969;-54
2022/08/21 04:35:52;;;;;;;;;;;23.80;87.10;;;;;;5099802;28;19915;-48
2022/08/21 04:38:18;;;;;;;;;;;23.80;87.00;;;;;;5083176;28;20432;-53
2022/08/21 04:40:44;;;;;;;;;;;23.80;87.00;;;;;;5110656;28;19916;-53
2022/08/21 04:43:10;;;;;;;;;;;23.80;87.00;;;;;;5110235;28;19908;-53
2022/08/21 04:45:40;;;;;;;;;;;23.80;87.10;;;;;;5085922;28;19926;-51
2022/08/21 04:48:06;;;;;;;;;;;23.80;87.10;;;;;;5115010;28;20369;-52
2022/08/21 04:50:34;;;;;;;;;;;23.80;87.10;;;;;;5103988;28;19904;-54
2022/08/21 04:53:00;;;;;;;;;;;23.90;87.00;;;;;;5094786;28;19904;-51
2022/08/21 04:55:27;;;;;;;;;;;23.80;87.10;;;;;;5076674;28;19915;-52
2022/08/21 04:57:53;;;;;;;;;;;23.80;87.10;;;;;;5094810;28;19908;-51
2022/08/21 05:00:19;;;;;;;;;;;23.80;87.10;;;;;;5094586;28;19916;-54
2022/08/21 05:02:47;;;;;;;;;;;23.80;87.20;;;;;;5106008;28;20002;-52
2022/08/21 05:05:13;;;;;;;;;;;23.80;87.10;;;;;;5115350;28;19907;-53
2022/08/21 05:07:38;;;;;;;;;;;23.90;87.20;;;;;;5115012;28;19904;-54
2022/08/21 05:10:04;;;;;;;;;;;23.90;87.10;;;;;;5114914;28;20350;-52
2022/08/21 05:12:31;;;;;;;;;;;23.90;87.00;;;;;;5114567;28;19904;-51
2022/08/21 05:14:56;;;;;;;;;;;23.90;87.10;;;;;;5112494;28;19962;-50
2022/08/21 05:17:23;;;;;;;;;;;23.90;87.00;;;;;;5113179;28;20361;-50
2022/08/21 05:19:48;;;;;;;;;;;23.90;87.00;;;;;;5112451;28;20308;-52
2022/08/21 05:22:24;;;;;;;;;;;23.90;87.00;;;;;;5098506;28;19915;-55
2022/08/21 05:24:50;;;;;;;;;;;23.90;87.00;;;;;;5094168;28;19904;-53
2022/08/21 05:27:16;;;;;;;;;;;23.90;87.00;;;;;;5092601;28;20370;-50
2022/08/21 05:29:42;;;;;;;;;;;23.90;87.00;;;;;;5076261;28;19908;-51
2022/08/21 05:32:08;;;;;;;;;;;23.90;87.00;;;;;;5093091;28;19904;-53
2022/08/21 05:34:34;;;;;;;;;;;23.90;87.00;;;;;;5093146;28;19971;-52
2022/08/21 05:36:59;;;;;;;;;;;23.90;87.00;;;;;;5105215;28;19911;-51
2022/08/21 05:39:24;;;;;;;;;;;23.90;87.00;;;;;;5092725;28;19927;-53
2022/08/21 05:41:50;;;;;;;;;;;23.90;87.00;;;;;;5089965;28;19924;-51
2022/08/21 05:44:15;;;;;;;;;;;23.90;87.00;;;;;;5093957;28;19919;-54
2022/08/21 05:46:41;;;;;;;;;;;23.90;87.00;;;;;;5111742;28;19908;-54
2022/08/21 05:49:06;;;;;;;;;;;23.90;87.00;;;;;;5094799;28;19957;-50
2022/08/21 05:51:32;;;;;;;;;;;23.90;87.00;;;;;;5110337;28;20278;-50
2022/08/21 05:53:57;;;;;;;;;;;23.90;87.50;;;;;;5106017;28;19908;-51
2022/08/21 05:56:23;;;;;;;;;;;23.90;87.00;;;;;;5111683;28;20333;-51
2022/08/21 05:58:48;;;;;;;;;;;23.90;87.00;;;;;;5111492;28;20052;-51
2022/08/21 06:01:14;;;;;;;;;;;23.90;87.00;;;;;;5109200;28;20006;-52
2022/08/21 06:03:40;;;;;;;;;;;23.90;87.00;;;;;;5087846;28;19920;-51
2022/08/21 06:06:06;;;;;;;;;;;23.90;87.00;;;;;;5108103;28;19919;-50
2022/08/21 06:08:32;;;;;;;;;;;23.90;87.00;;;;;;5098764;28;19908;-50
2022/08/21 06:10:58;;;;;;;;;;;23.90;87.00;;;;;;5096940;28;19955;-48
2022/08/21 06:13:24;;;;;;;;;;;23.90;87.00;;;;;;5112024;28;20266;-50
2022/08/21 06:15:50;;;;;;;;;;;23.90;87.00;;;;;;5112926;28;19965;-50
2022/08/21 06:18:16;;;;;;;;;;;23.90;87.00;;;;;;5094927;28;20336;-52
2022/08/21 06:20:42;;;;;;;;;;;23.90;87.00;;;;;;5112070;28;19912;-48
2022/08/21 06:23:07;;;;;;;;;;;23.90;86.80;;;;;;5083352;28;20377;-51
2022/08/21 06:25:33;;;;;;;;;;;23.90;87.00;;;;;;5095889;28;20370;-51
2022/08/21 06:28:06;;;;;;;;;;;23.90;87.00;;;;;;5107406;28;20362;-51
2022/08/21 06:30:32;;;;;;;;;;;23.90;87.00;;;;;;5106751;28;19908;-54
2022/08/21 06:32:57;;;;;;;;;;;23.90;86.90;;;;;;5110613;28;20366;-51
2022/08/21 06:35:24;;;;;;;;;;;23.90;86.90;;;;;;5109667;28;19935;-54
2022/08/21 06:37:50;;;;;;;;;;;23.90;86.90;;;;;;5107669;28;20002;-54
2022/08/21 06:40:15;;;;;;;;;;;23.90;86.80;;;;;;5109022;28;20258;-55
2022/08/21 06:42:41;;;;;;;;;;;23.90;86.90;;;;;;5109939;28;19908;-55
2022/08/21 06:45:06;;;;;;;;;;;24.00;86.90;;;;;;5107933;28;20368;-50
2022/08/21 06:47:32;;;;;;;;;;;24.00;86.90;;;;;;5097005;28;19923;-50
2022/08/21 06:49:57;;;;;;;;;;;24.00;86.90;;;;;;5083989;28;20236;-53
2022/08/21 06:52:23;;;;;;;;;;;23.90;86.90;;;;;;5108575;28;20374;-50
2022/08/21 06:54:48;;;;;;;;;;;24.00;86.90;;;;;;5111947;28;19920;-49
2022/08/21 06:57:14;;;;;;;;;;;24.00;86.90;;;;;;5112558;28;19915;-54
2022/08/21 06:59:39;;;;;;;;;;;23.90;86.80;;;;;;5108169;28;19911;-52
2022/08/21 07:02:04;;;;;;;;;;;24.00;86.90;;;;;;5096395;28;19957;-49
2022/08/21 07:04:30;;;;;;;;;;;23.90;87.00;;;;;;5105983;28;19915;-55
2022/08/21 07:06:55;;;;;;;;;;;24.00;87.00;;;;;;5102759;28;19911;-55
2022/08/21 07:09:21;;;;;;;;;;;24.00;87.10;;;;;;5112730;28;19918;-56
2022/08/21 07:11:49;;;;;;;;;;;23.90;87.10;;;;;;5107077;28;19908;-56
2022/08/21 07:14:15;;;;;;;;;;;23.90;87.30;;;;;;5099694;28;19951;-54
2022/08/21 07:16:40;;;;;;;;;;;23.90;87.20;;;;;;5096581;28;19908;-54
2022/08/21 07:19:06;;;;;;;;;;;23.90;87.30;;;;;;5096460;28;20331;-53
2022/08/21 07:21:31;;;;;;;;;;;23.90;87.20;;;;;;5095079;28;19913;-51
2022/08/21 07:23:57;;;;;;;;;;;23.80;87.10;;;;;;5094878;28;19915;-50
2022/08/21 07:26:23;;;;;;;;;;;23.90;87.20;;;;;;5096357;28;19908;-51
2022/08/21 07:28:49;;;;;;;;;;;23.80;87.10;;;;;;5095862;28;19908;-53
2022/08/21 07:31:15;;;;;;;;;;;23.80;87.20;;;;;;5096207;28;20427;-55
2022/08/21 07:33:41;;;;;;;;;;;23.80;86.90;;;;;;5095879;28;19930;-55
2022/08/21 07:36:07;;;;;;;;;;;23.80;86.70;;;;;;5096124;28;19909;-56
2022/08/21 07:38:32;;;;;;;;;;;23.60;86.90;;;;;;5077857;28;20318;-58
2022/08/21 07:40:59;;;;;;;;;;;23.50;86.80;;;;;;5095408;28;19912;-56
2022/08/21 07:43:25;;;;;;;;;;;23.40;86.90;;;;;;5095893;28;19915;-57
2022/08/21 07:45:51;;;;;;;;;;;23.30;87.00;;;;;;5077880;28;19908;-54
2022/08/21 07:48:16;;;;;;;;;;;23.40;86.90;;;;;;5095888;28;20346;-57
2022/08/21 07:50:42;;;;;;;;;;;23.40;86.70;;;;;;5096074;28;19908;-56
2022/08/21 07:53:07;;;;;;;;;;;23.50;86.80;;;;;;5093092;28;19912;-55
2022/08/21 07:55:33;;;;;;;;;;;23.50;86.70;;;;;;5094636;28;19908;-54
2022/08/21 07:57:59;;;;;;;;;;;23.50;86.50;;;;;;5095520;28;19908;-56
2022/08/21 08:00:25;;;;;;;;;;;23.40;86.30;;;;;;5077561;28;19912;-55
2022/08/21 08:02:52;;;;;;;;;;;23.50;85.80;;;;;;5077136;28;20259;-55
2022/08/21 08:05:20;;;;;;;;;;;23.40;85.90;;;;;;5094590;28;19961;-53
2022/08/21 08:07:45;;;;;;;;;;;23.40;86.20;;;;;;5115439;28;19908;-53
2022/08/21 08:10:11;;;;;;;;;;;23.50;85.30;;;;;;5115974;28;19961;-55
2022/08/21 08:12:38;;;;;;;;;;;23.50;85.50;;;;;;5088995;28;20251;-61
2022/08/21 08:15:04;;;;;;;;;;;23.50;85.70;;;;;;5095280;28;19991;-54
2022/08/21 08:17:32;;;;;;;;;;;23.50;85.80;;;;;;5092318;28;19912;-57
2022/08/21 08:19:57;;;;;;;;;;;23.40;85.80;;;;;;5108851;28;19916;-55
2022/08/21 08:22:23;;;;;;;;;;;23.40;86.00;;;;;;5112127;28;19926;-55
2022/08/21 08:24:50;;;;;;;;;;;23.40;86.00;;;;;;5081353;28;20014;-56
2022/08/21 08:27:16;;;;;;;;;;;23.40;86.20;;;;;;5095703;28;19964;-56
2022/08/21 08:29:41;;;;;;;;;;;23.30;86.70;;;;;;5100312;28;20359;-54
2022/08/21 08:32:07;;;;;;;;;;;23.40;86.20;;;;;;5099155;28;19930;-53
2022/08/21 08:34:33;;;;;;;;;;;23.40;85.90;;;;;;5086483;28;19912;-54
2022/08/21 08:36:59;;;;;;;;;;;23.50;86.20;;;;;;5085928;28;19912;-52
2022/08/21 08:39:24;;;;;;;;;;;23.50;85.50;;;;;;5080102;28;19923;-53
2022/08/21 08:41:55;;;;;;;;;;;23.50;85.30;;;;;;5091386;28;19985;-51
2022/08/21 08:44:21;;;;;;;;;;;23.50;85.20;;;;;;5095540;28;19912;-50
2022/08/21 08:46:48;;;;;;;;;;;23.50;85.10;;;;;;5093949;28;20351;-53
2022/08/21 08:49:17;;;;;;;;;;;23.60;85.20;;;;;;5094528;28;20337;-51
2022/08/21 08:51:43;;;;;;;;;;;23.60;85.20;;;;;;5071504;28;19977;-50
2022/08/21 08:54:11;;;;;;;;;;;23.60;85.20;;;;;;5109432;28;20355;-49
2022/08/21 08:56:36;;;;;;;;;;;23.60;85.20;;;;;;5104260;28;19916;-55
2022/08/21 08:59:11;;;;;;;;;;;23.60;85.10;;;;;;5113420;28;19911;-54
2022/08/21 09:01:37;;;;;;;;;;;23.60;85.20;;;;;;5107820;28;20340;-52
2022/08/21 09:04:02;;;;;;;;;;;23.60;85.20;;;;;;5105085;28;19919;-51
2022/08/21 09:06:40;;;;;;;;;;;23.60;85.20;;;;;;5108986;28;19912;-56
2022/08/21 09:09:24;;;;;;;;;;;23.60;86.10;;;;;;5098057;28;20026;-56
2022/08/21 09:12:13;;;;;;;;;;;23.60;86.00;;;;;;5082249;28;19919;-53
2022/08/21 09:14:52;;;;;;;;;;;23.60;85.70;;;;;;5044913;28;19908;-55
2022/08/21 09:17:21;;;;;;;;;;;23.60;85.90;;;;;;5069596;28;19908;-55
2022/08/21 09:19:49;;;;;;;;;;;23.60;86.60;;;;;;5094636;28;19924;-52
2022/08/21 09:22:19;;;;;;;;;;;23.60;86.50;;;;;;5089789;28;19930;-56
2022/08/21 09:24:53;;;;;;;;;;;23.60;87.30;;;;;;5092367;28;19904;-55
2022/08/21 09:27:20;;;;;;;;;;;23.50;86.60;;;;;;5092769;28;19965;-54
2022/08/21 09:29:47;;;;;;;;;;;23.60;86.20;;;;;;5093120;28;20350;-54
2022/08/21 09:32:22;;;;;;;;;;;23.60;85.90;;;;;;5093895;28;19908;-54
2022/08/21 09:35:14;;;;;;;;;;;23.60;86.30;;;;;;5099008;28;20015;-56
2022/08/21 09:38:01;;;;;;;;;;;23.60;86.00;;;;;;5100437;28;20006;-54
2022/08/21 09:40:37;;;;;;;;;;;23.60;86.20;;;;;;5104887;28;20258;-55
2022/08/21 09:43:05;;;;;;;;;;;23.60;86.80;;;;;;5074710;28;20267;-56
2022/08/21 09:45:31;;;;;;;;;;;23.60;86.80;;;;;;5113353;28;19966;-55
2022/08/21 09:48:07;;;;;;;;;;;23.60;86.90;;;;;;5113299;28;20330;-55
2022/08/21 09:50:32;;;;;;;;;;;23.60;86.50;;;;;;5073671;28;20268;-54
2022/08/21 09:52:59;;;;;;;;;;;23.60;86.90;;;;;;5106878;28;20019;-53
2022/08/21 09:58:30;;;;;;;;;;;23.60;87.10;;;;;;5093679;28;19920;-53
2022/08/21 10:00:59;;;;;;;;;;;23.60;86.20;;;;;;5076534;28;20045;-55
2022/08/21 10:03:25;;;;;;;;;;;23.60;86.50;;;;;;5102236;28;19999;-55
2022/08/21 10:05:59;;;;;;;;;;;23.60;86.90;;;;;;5100146;28;20953;-56
2022/08/21 10:08:26;;;;;;;;;;;23.60;87.10;;;;;;5110229;28;19912;-53
2022/08/21 10:10:57;;;;;;;;;;;23.70;87.00;;;;;;5111525;28;20006;-57
2022/08/21 10:13:29;;;;;;;;;;;23.70;86.90;;;;;;5107501;28;19919;-56
2022/08/21 10:16:04;;;;;;;;;;;23.60;87.10;;;;;;5113509;28;19908;-51
2022/08/21 10:18:36;;;;;;;;;;;23.70;87.10;;;;;;5102597;28;20289;-53
2022/08/21 10:21:10;;;;;;;;;;;23.70;87.40;;;;;;5103896;28;19917;-54
2022/08/21 10:24:00;;;;;;;;;;;23.70;87.60;;;;;;5079112;28;19912;-56
2022/08/21 10:26:31;;;;;;;;;;;23.70;88.10;;;;;;5099611;28;19916;-54
2022/08/21 10:29:03;;;;;;;;;;;23.70;88.40;;;;;;5091854;28;19974;-53
2022/08/21 10:31:28;;;;;;;;;;;23.70;88.40;;;;;;5105780;28;19921;-54
2022/08/21 10:34:06;;;;;;;;;;;23.70;88.40;;;;;;5082504;28;19913;-56
2022/08/21 10:36:35;;;;;;;;;;;23.70;88.40;;;;;;5075681;28;20306;-56
2022/08/21 10:39:18;;;;;;;;;;;23.70;88.20;;;;;;5085249;28;19931;-54
2022/08/21 10:41:53;;;;;;;;;;;23.70;88.70;;;;;;5097519;28;20367;-54
2022/08/21 10:44:21;;;;;;;;;;;23.70;88.10;;;;;;5085932;28;19912;-53
2022/08/21 10:46:55;;;;;;;;;;;23.70;88.00;;;;;;5117216;28;19915;-51
2022/08/21 10:49:23;;;;;;;;;;;23.80;88.00;;;;;;5117267;28;19908;-51
2022/08/21 10:52:04;;;;;;;;;;;23.80;87.90;;;;;;5117300;28;20010;-54
2022/08/21 10:54:30;;;;;;;;;;;23.70;88.30;;;;;;5099060;28;19907;-53
2022/08/21 10:57:01;;;;;;;;;;;23.80;87.70;;;;;;5117106;28;19912;-52
2022/08/21 10:59:41;;;;;;;;;;;23.80;87.70;;;;;;5098709;28;19912;-50
2022/08/21 11:02:21;;;;;;;;;;;23.80;87.70;;;;;;5116354;28;19916;-53
2022/08/21 11:04:47;;;;;;;;;;;23.80;87.60;;;;;;5116709;28;19918;-53
2022/08/21 11:07:31;;;;;;;;;;;23.80;87.60;;;;;;5117451;28;19907;-53
2022/08/21 11:09:59;;;;;;;;;;;23.80;87.60;;;;;;5116962;28;19912;-52
2022/08/21 11:12:35;;;;;;;;;;;23.80;87.50;;;;;;5116901;28;19914;-55
2022/08/21 11:15:21;;;;;;;;;;;23.80;87.50;;;;;;5116894;28;19919;-54
2022/08/21 11:17:55;;;;;;;;;;;23.80;87.60;;;;;;5115762;28;19919;-50
2022/08/21 11:20:26;;;;;;;;;;;23.80;87.50;;;;;;5116778;28;20417;-54
2022/08/21 11:23:00;;;;;;;;;;;23.80;87.40;;;;;;5116940;28;20270;-54
2022/08/21 11:25:30;;;;;;;;;;;23.80;87.40;;;;;;5117163;28;19919;-50
2022/08/21 11:28:06;;;;;;;;;;;23.80;87.30;;;;;;5116399;28;19912;-54
2022/08/21 11:30:43;;;;;;;;;;;23.80;87.30;;;;;;5114915;28;20007;-51
2022/08/21 11:33:22;;;;;;;;;;;23.80;87.30;;;;;;5116377;28;19907;-52
2022/08/21 11:35:52;;;;;;;;;;;23.80;87.30;;;;;;5098292;28;19953;-53
2022/08/21 11:38:30;;;;;;;;;;;23.80;87.20;;;;;;5116119;28;19908;-52
2022/08/21 11:41:01;;;;;;;;;;;23.80;87.00;;;;;;5116292;28;19959;-54
2022/08/21 11:43:46;;;;;;;;;;;23.80;87.00;;;;;;5116425;28;19911;-53
2022/08/21 11:46:11;;;;;;;;;;;23.80;87.00;;;;;;5116366;28;19915;-53
2022/08/21 11:49:03;;;;;;;;;;;23.80;87.00;;;;;;5116073;28;19908;-53
2022/08/21 11:51:33;;;;;;;;;;;23.80;87.00;;;;;;5116283;28;19915;-52
2022/08/21 11:54:11;;;;;;;;;;;23.80;87.00;;;;;;5115845;28;19914;-54
2022/08/21 11:56:42;;;;;;;;;;;23.80;87.00;;;;;;5115844;28;19912;-53
2022/08/21 11:59:20;;;;;;;;;;;23.80;87.00;;;;;;5115864;28;19934;-53
2022/08/21 12:01:46;;;;;;;;;;;23.80;87.00;;;;;;5116092;28;19919;-54
2022/08/21 12:04:23;;;;;;;;;;;23.80;87.00;;;;;;5115933;28;19965;-51
2022/08/21 12:06:49;;;;;;;;;;;23.80;87.00;;;;;;5115921;28;19912;-50
2022/08/21 12:09:23;;;;;;;;;;;23.80;87.00;;;;;;5116000;28;20395;-55
2022/08/21 12:11:50;;;;;;;;;;;23.80;87.00;;;;;;5115560;28;19915;-54
2022/08/21 12:14:18;;;;;;;;;;;23.80;87.00;;;;;;5115933;28;19947;-52
2022/08/21 12:16:48;;;;;;;;;;;23.80;86.90;;;;;;5115825;28;19912;-53
2022/08/21 12:19:28;;;;;;;;;;;23.80;86.90;;;;;;5097357;28;19959;-54
2022/08/21 12:21:54;;;;;;;;;;;23.80;86.90;;;;;;5115505;28;19970;-54
2022/08/21 12:24:37;;;;;;;;;;;23.80;86.90;;;;;;5115300;28;20360;-56
2022/08/21 12:27:25;;;;;;;;;;;23.80;86.80;;;;;;5115901;28;20339;-51
2022/08/21 12:29:52;;;;;;;;;;;23.80;86.90;;;;;;5115195;28;19969;-54
2022/08/21 12:32:18;;;;;;;;;;;23.80;86.90;;;;;;5115094;28;19914;-55
2022/08/21 12:35:00;;;;;;;;;;;23.80;86.80;;;;;;5114898;28;19908;-52
2022/08/21 12:37:39;;;;;;;;;;;23.80;86.80;;;;;;5114792;28;19959;-55
2022/08/21 12:40:13;;;;;;;;;;;23.80;86.80;;;;;;5115320;28;19918;-53
2022/08/21 12:42:42;;;;;;;;;;;23.80;86.80;;;;;;5096600;28;19935;-54
2022/08/21 12:45:17;;;;;;;;;;;23.80;86.70;;;;;;5114744;28;19908;-53
2022/08/21 12:47:46;;;;;;;;;;;23.80;86.70;;;;;;5114859;28;19911;-53
2022/08/21 12:50:14;;;;;;;;;;;23.80;86.70;;;;;;5114814;28;20347;-51
2022/08/21 12:52:44;;;;;;;;;;;23.80;86.70;;;;;;5114957;28;20368;-51
2022/08/21 12:55:15;;;;;;;;;;;23.80;86.70;;;;;;5096720;28;19908;-52
2022/08/21 12:57:41;;;;;;;;;;;23.80;86.60;;;;;;5114934;28;20278;-54
2022/08/21 13:00:11;;;;;;;;;;;23.80;86.60;;;;;;5114802;28;19920;-55
2022/08/21 13:02:39;;;;;;;;;;;23.80;86.60;;;;;;5114745;28;19924;-50
2022/08/21 13:05:06;;;;;;;;;;;23.80;86.60;;;;;;5114501;28;19915;-52
2022/08/21 13:07:33;;;;;;;;;;;23.80;86.60;;;;;;5114246;28;20304;-54
2022/08/21 13:10:01;;;;;;;;;;;23.80;86.60;;;;;;5114217;28;20368;-52
2022/08/21 13:12:28;;;;;;;;;;;23.90;86.60;;;;;;5114550;28;20052;-53
2022/08/21 13:14:56;;;;;;;;;;;23.90;86.60;;;;;;5096157;28;19945;-55
2022/08/21 13:17:23;;;;;;;;;;;23.90;86.60;;;;;;5114613;28;19915;-52
2022/08/21 13:19:57;;;;;;;;;;;23.90;86.60;;;;;;5114530;28;19966;-54
2022/08/21 13:22:23;;;;;;;;;;;23.90;86.50;;;;;;5096260;28;19922;-52
2022/08/21 13:24:49;;;;;;;;;;;23.90;86.60;;;;;;5114132;28;20247;-54
2022/08/21 13:27:19;;;;;;;;;;;23.80;86.40;;;;;;5114435;28;19922;-55
2022/08/21 13:29:44;;;;;;;;;;;23.90;86.50;;;;;;5114293;28;19912;-56
2022/08/21 13:32:18;;;;;;;;;;;23.90;86.50;;;;;;5114435;28;19908;-54
2022/08/21 13:34:43;;;;;;;;;;;23.90;86.50;;;;;;5114334;28;19931;-53
2022/08/21 13:37:11;;;;;;;;;;;23.80;86.40;;;;;;5114184;28;20359;-55
2022/08/21 13:39:38;;;;;;;;;;;23.90;86.50;;;;;;5114214;28;20014;-53
2022/08/21 13:42:05;;;;;;;;;;;23.80;86.40;;;;;;5114233;28;20085;-54
2022/08/21 13:44:31;;;;;;;;;;;23.80;86.40;;;;;;5114312;28;19930;-55
2022/08/21 13:46:59;;;;;;;;;;;23.90;86.40;;;;;;5114033;28;20355;-54
2022/08/21 13:49:28;;;;;;;;;;;23.90;87.00;;;;;;5113652;28;19953;-54
2022/08/21 13:51:53;;;;;;;;;;;23.90;86.40;;;;;;5114295;28;19915;-53
2022/08/21 13:54:26;;;;;;;;;;;23.90;86.40;;;;;;5116741;28;19908;-53
2022/08/21 13:56:52;;;;;;;;;;;23.90;86.40;;;;;;5117997;28;19995;-52
2022/08/21 13:59:32;;;;;;;;;;;23.90;86.40;;;;;;5118330;28;20002;-52
2022/08/21 14:02:12;;;;;;;;;;;23.90;86.40;;;;;;5118121;28;19912;-55
2022/08/21 14:04:43;;;;;;;;;;;23.90;86.40;;;;;;5118475;28;19920;-54
2022/08/21 14:07:26;;;;;;;;;;;23.90;86.40;;;;;;5118142;28;20354;-49
2022/08/21 14:09:52;;;;;;;;;;;23.80;86.30;;;;;;5118016;28;19907;-50
2022/08/21 14:12:23;;;;;;;;;;;23.90;86.30;;;;;;5118396;28;20419;-53
2022/08/21 14:14:50;;;;;;;;;;;23.90;86.30;;;;;;5117967;28;19908;-50
2022/08/21 14:17:26;;;;;;;;;;;23.90;86.30;;;;;;5117925;28;19961;-52
2022/08/21 14:19:51;;;;;;;;;;;23.90;86.30;;;;;;5117946;28;20018;-50
2022/08/21 14:22:36;;;;;;;;;;;23.80;86.20;;;;;;5117694;28;19955;-52
2022/08/21 14:25:13;;;;;;;;;;;23.90;86.20;;;;;;5099398;28;20231;-52